sensor_id;sensor_type;location;lat;lon;timestamp;pressure;altitude;pressure_sealevel;temperature;humidity
62789;BME280;48826;42.016;21.454;2022-12-10T22:17:44;96128.28;;;25.59;40.59
62789;BME280;48826;42.016;21.454;2022-12-10T22:20:10;96111.13;;;25.45;40.45
62789;BME280;48826;42.016;21.454;2022-12-10T22:22:35;96100.72;;;25.39;40.42
62789;BME280;48826;42.016;21.454;2022-12-10T22:25:01;96109.31;;;25.33;40.98
62789;BME280;48826;42.016;21.454;2022-12-10T22:27:29;96105.66;;;25.25;40.74
62789;BME280;48826;42.016;21.454;2022-12-10T22:29:58;96105.44;;;25.30;40.99
62789;BME280;48826;42.016;21.454;2022-12-10T22:32:24;96108.81;;;25.15;40.92
62789;BME280;48826;42.016;21.454;2022-12-10T22:34:50;96097.72;;;25.01;41.09
62789;BME280;48826;42.016;21.454;2022-12-10T22:37:16;96086.91;;;24.81;41.62
62789;BME280;48826;42.016;21.454;2022-12-10T22:39:41;96112.75;;;24.81;41.70
62789;BME280;48826;42.016;21.454;2022-12-10T22:42:07;96103.19;;;24.80;41.04
62789;BME280;48826;42.016;21.454;2022-12-10T22:44:32;96112.59;;;24.90;40.88
62789;BME280;48826;42.016;21.454;2022-12-10T22:46:59;96111.72;;;24.86;40.71
62789;BME280;48826;42.016;21.454;2022-12-10T22:49:24;96113.06;;;25.04;41.07
62789;BME280;48826;42.016;21.454;2022-12-10T22:51:50;96105.97;;;24.83;41.19
62789;BME280;48826;42.016;21.454;2022-12-10T22:54:15;96119.50;;;24.91;41.13
62789;BME280;48826;42.016;21.454;2022-12-10T22:56:41;96115.97;;;24.74;41.22
62789;BME280;48826;42.016;21.454;2022-12-10T22:59:06;96121.50;;;24.81;41.16
62789;BME280;48826;42.016;21.454;2022-12-10T23:01:32;96110.44;;;24.67;41.61
62789;BME280;48826;42.016;21.454;2022-12-10T23:03:58;96096.69;;;24.65;41.60
62789;BME280;48826;42.016;21.454;2022-12-10T23:06:24;96062.75;;;24.50;41.53
62789;BME280;48826;42.016;21.454;2022-12-10T23:08:50;96105.22;;;24.71;41.55
62789;BME280;48826;42.016;21.454;2022-12-10T23:11:15;96116.84;;;24.78;41.59
62789;BME280;48826;42.016;21.454;2022-12-10T23:13:42;96117.41;;;24.84;40.84
62789;BME280;48826;42.016;21.454;2022-12-10T23:16:10;96117.50;;;24.88;41.10
62789;BME280;48826;42.016;21.454;2022-12-10T23:18:37;96110.19;;;24.84;41.43
62789;BME280;48826;42.016;21.454;2022-12-10T23:21:03;96104.84;;;24.84;40.76
62789;BME280;48826;42.016;21.454;2022-12-10T23:23:37;96081.16;;;24.67;40.94
62789;BME280;48826;42.016;21.454;2022-12-10T23:26:02;96109.94;;;24.90;40.71
62789;BME280;48826;42.016;21.454;2022-12-10T23:28:28;96108.38;;;24.89;41.26
62789;BME280;48826;42.016;21.454;2022-12-10T23:30:54;96104.00;;;24.80;41.22
62789;BME280;48826;42.016;21.454;2022-12-10T23:33:20;96131.25;;;24.90;40.84
62789;BME280;48826;42.016;21.454;2022-12-10T23:35:46;96162.13;;;25.03;41.28
62789;BME280;48826;42.016;21.454;2022-12-10T23:38:12;96189.19;;;25.05;40.76
62789;BME280;48826;42.016;21.454;2022-12-10T23:40:43;96203.19;;;25.02;41.01
62789;BME280;48826;42.016;21.454;2022-12-10T23:43:10;96192.19;;;25.03;40.76
62789;BME280;48826;42.016;21.454;2022-12-10T23:45:41;96189.03;;;24.89;40.86
62789;BME280;48826;42.016;21.454;2022-12-10T23:48:07;96191.63;;;24.86;40.54
62789;BME280;48826;42.016;21.454;2022-12-10T23:50:33;96193.28;;;24.90;41.00
62789;BME280;48826;42.016;21.454;2022-12-10T23:53:00;96191.06;;;24.92;40.52
62789;BME280;48826;42.016;21.454;2022-12-10T23:55:26;96186.94;;;24.95;40.56
62789;BME280;48826;42.016;21.454;2022-12-10T23:57:51;96174.31;;;24.92;41.17
